sensor_id;sensor_type;location;lat;lon;timestamp;pressure;altitude;pressure_sealevel;temperature
11926;BMP180;6022;48.768;18.608;2024-01-30T00:01:27;100532.84;;;-1.02
11926;BMP180;6022;48.768;18.608;2024-01-30T00:03:54;100536.16;;;-1.03
11926;BMP180;6022;48.768;18.608;2024-01-30T00:06:21;100533.66;;;-1.03
11926;BMP180;6022;48.768;18.608;2024-01-30T00:08:49;100539.44;;;-1.06
11926;BMP180;6022;48.768;18.608;2024-01-30T00:11:16;100539.47;;;-1.04
11926;BMP180;6022;48.768;18.608;2024-01-30T00:13:44;100543.63;;;-1.05
11926;BMP180;6022;48.768;18.608;2024-01-30T00:16:24;100539.44;;;-1.06
11926;BMP180;6022;48.768;18.608;2024-01-30T00:18:53;100547.69;;;-1.10
11926;BMP180;6022;48.768;18.608;2024-01-30T00:21:21;100550.09;;;-1.14
11926;BMP180;6022;48.768;18.608;2024-01-30T00:23:48;100542.56;;;-1.17
11926;BMP180;6022;48.768;18.608;2024-01-30T00:26:16;100547.50;;;-1.21
11926;BMP180;6022;48.768;18.608;2024-01-30T00:28:43;100547.47;;;-1.23
11926;BMP180;6022;48.768;18.608;2024-01-30T00:31:13;100544.91;;;-1.26
11926;BMP180;6022;48.768;18.608;2024-01-30T00:33:41;100542.31;;;-1.32
11926;BMP180;6022;48.768;18.608;2024-01-30T00:36:09;100544.81;;;-1.32
11926;BMP180;6022;48.768;18.608;2024-01-30T00:38:37;100548.09;;;-1.34
11926;BMP180;6022;48.768;18.608;2024-01-30T00:41:04;100553.91;;;-1.34
11926;BMP180;6022;48.768;18.608;2024-01-30T00:43:32;100545.59;;;-1.34
11926;BMP180;6022;48.768;18.608;2024-01-30T00:45:59;100546.44;;;-1.34
11926;BMP180;6022;48.768;18.608;2024-01-30T00:48:26;100547.22;;;-1.36
11926;BMP180;6022;48.768;18.608;2024-01-30T00:50:54;100538.00;;;-1.42
11926;BMP180;6022;48.768;18.608;2024-01-30T00:53:21;100536.38;;;-1.40
11926;BMP180;6022;48.768;18.608;2024-01-30T00:55:48;100533.94;;;-1.37
11926;BMP180;6022;48.768;18.608;2024-01-30T00:58:15;100532.19;;;-1.42
11926;BMP180;6022;48.768;18.608;2024-01-30T01:00:43;100528.06;;;-1.42
11926;BMP180;6022;48.768;18.608;2024-01-30T01:03:10;100525.53;;;-1.43
11926;BMP180;6022;48.768;18.608;2024-01-30T01:05:38;100526.25;;;-1.49
11926;BMP180;6022;48.768;18.608;2024-01-30T01:08:06;100524.53;;;-1.52
11926;BMP180;6022;48.768;18.608;2024-01-30T01:10:33;100529.44;;;-1.57
11926;BMP180;6022;48.768;18.608;2024-01-30T01:13:00;100523.59;;;-1.59
11926;BMP180;6022;48.768;18.608;2024-01-30T01:15:28;100531.03;;;-1.60
11926;BMP180;6022;48.768;18.608;2024-01-30T01:17:56;100527.72;;;-1.59
11926;BMP180;6022;48.768;18.608;2024-01-30T01:20:24;100526.19;;;-1.53
11926;BMP180;6022;48.768;18.608;2024-01-30T01:22:51;100524.50;;;-1.54
11926;BMP180;6022;48.768;18.608;2024-01-30T01:25:19;100532.00;;;-1.52
11926;BMP180;6022;48.768;18.608;2024-01-30T01:27:47;100527.78;;;-1.56
11926;BMP180;6022;48.768;18.608;2024-01-30T01:30:30;100522.81;;;-1.56
11926;BMP180;6022;48.768;18.608;2024-01-30T01:33:21;100526.97;;;-1.55
11926;BMP180;6022;48.768;18.608;2024-01-30T01:35:48;100531.09;;;-1.56
11926;BMP180;6022;48.768;18.608;2024-01-30T01:38:17;100532.66;;;-1.62
11926;BMP180;6022;48.768;18.608;2024-01-30T01:40:44;100527.41;;;-1.77
11926;BMP180;6022;48.768;18.608;2024-01-30T01:43:11;100534.50;;;-1.95
11926;BMP180;6022;48.768;18.608;2024-01-30T01:45:38;100538.63;;;-1.97
11926;BMP180;6022;48.768;18.608;2024-01-30T01:48:06;100532.78;;;-1.99
11926;BMP180;6022;48.768;18.608;2024-01-30T01:50:36;100528.63;;;-2.00
11926;BMP180;6022;48.768;18.608;2024-01-30T01:53:07;100527.81;;;-1.99
11926;BMP180;6022;48.768;18.608;2024-01-30T01:55:35;100526.25;;;-1.94
11926;BMP180;6022;48.768;18.608;2024-01-30T01:58:03;100527.06;;;-1.95
11926;BMP180;6022;48.768;18.608;2024-01-30T02:00:30;100523.56;;;-2.04
11926;BMP180;6022;48.768;18.608;2024-01-30T02:02:59;100526.91;;;-2.04
11926;BMP180;6022;48.768;18.608;2024-01-30T02:05:27;100527.72;;;-2.03
11926;BMP180;6022;48.768;18.608;2024-01-30T02:07:55;100521.97;;;-2.01
11926;BMP180;6022;48.768;18.608;2024-01-30T02:10:23;100527.88;;;-1.96
11926;BMP180;6022;48.768;18.608;2024-01-30T02:12:50;100515.44;;;-1.96
11926;BMP180;6022;48.768;18.608;2024-01-30T02:15:18;100515.50;;;-1.91
11926;BMP180;6022;48.768;18.608;2024-01-30T02:17:45;100523.81;;;-1.92
11926;BMP180;6022;48.768;18.608;2024-01-30T02:20:12;100504.75;;;-1.92
11926;BMP180;6022;48.768;18.608;2024-01-30T02:22:42;100511.38;;;-1.92
11926;BMP180;6022;48.768;18.608;2024-01-30T02:25:09;100524.56;;;-1.95
11926;BMP180;6022;48.768;18.608;2024-01-30T02:27:37;100526.16;;;-2.00
11926;BMP180;6022;48.768;18.608;2024-01-30T02:30:05;100531.97;;;-1.98
11926;BMP180;6022;48.768;18.608;2024-01-30T02:32:32;100523.66;;;-2.00
11926;BMP180;6022;48.768;18.608;2024-01-30T02:34:59;100528.56;;;-2.03
11926;BMP180;6022;48.768;18.608;2024-01-30T02:37:27;100528.53;;;-2.06
11926;BMP180;6022;48.768;18.608;2024-01-30T02:39:54;100531.72;;;-2.11
11926;BMP180;6022;48.768;18.608;2024-01-30T02:42:21;100524.16;;;-2.16
11926;BMP180;6022;48.768;18.608;2024-01-30T02:44:48;100532.31;;;-2.23
11926;BMP180;6022;48.768;18.608;2024-01-30T02:47:15;100531.38;;;-2.27
11926;BMP180;6022;48.768;18.608;2024-01-30T02:49:42;100533.00;;;-2.29
11926;BMP180;6022;48.768;18.608;2024-01-30T02:52:10;100528.03;;;-2.29
11926;BMP180;6022;48.768;18.608;2024-01-30T02:54:37;100530.63;;;-2.24
11926;BMP180;6022;48.768;18.608;2024-01-30T02:57:04;100528.16;;;-2.24
11926;BMP180;6022;48.768;18.608;2024-01-30T02:59:31;100522.31;;;-2.26
11926;BMP180;6022;48.768;18.608;2024-01-30T03:02:00;100523.97;;;-2.26
11926;BMP180;6022;48.768;18.608;2024-01-30T03:04:27;100522.38;;;-2.23
11926;BMP180;6022;48.768;18.608;2024-01-30T03:06:57;100517.44;;;-2.20
11926;BMP180;6022;48.768;18.608;2024-01-30T03:09:24;100515.78;;;-2.21
11926;BMP180;6022;48.768;18.608;2024-01-30T03:11:51;100521.56;;;-2.22
11926;BMP180;6022;48.768;18.608;2024-01-30T03:14:18;100508.34;;;-2.21
11926;BMP180;6022;48.768;18.608;2024-01-30T03:16:46;100507.47;;;-2.21
11926;BMP180;6022;48.768;18.608;2024-01-30T03:19:13;100507.47;;;-2.21
11926;BMP180;6022;48.768;18.608;2024-01-30T03:21:40;100503.31;;;-2.22
11926;BMP180;6022;48.768;18.608;2024-01-30T03:24:07;100504.13;;;-2.23
11926;BMP180;6022;48.768;18.608;2024-01-30T03:26:36;100501.59;;;-2.26
11926;BMP180;6022;48.768;18.608;2024-01-30T03:29:03;100506.44;;;-2.30
11926;BMP180;6022;48.768;18.608;2024-01-30T03:31:30;100504.72;;;-2.34
11926;BMP180;6022;48.768;18.608;2024-01-30T03:33:57;100493.91;;;-2.36
11926;BMP180;6022;48.768;18.608;2024-01-30T03:36:25;100491.41;;;-2.36
11926;BMP180;6022;48.768;18.608;2024-01-30T03:38:52;100500.31;;;-2.47
11926;BMP180;6022;48.768;18.608;2024-01-30T03:41:20;100502.66;;;-2.53
11926;BMP180;6022;48.768;18.608;2024-01-30T03:43:47;100509.19;;;-2.58
11926;BMP180;6022;48.768;18.608;2024-01-30T03:46:14;100496.78;;;-2.58
11926;BMP180;6022;48.768;18.608;2024-01-30T03:48:42;100501.75;;;-2.57
11926;BMP180;6022;48.768;18.608;2024-01-30T03:51:09;100502.53;;;-2.59
11926;BMP180;6022;48.768;18.608;2024-01-30T03:53:42;100500.88;;;-2.60
11926;BMP180;6022;48.768;18.608;2024-01-30T03:56:11;100497.59;;;-2.58
11926;BMP180;6022;48.768;18.608;2024-01-30T03:58:40;100500.13;;;-2.56
11926;BMP180;6022;48.768;18.608;2024-01-30T04:01:07;100501.84;;;-2.54
11926;BMP180;6022;48.768;18.608;2024-01-30T04:03:39;100499.28;;;-2.57
11926;BMP180;6022;48.768;18.608;2024-01-30T04:06:07;100511.56;;;-2.63
11926;BMP180;6022;48.768;18.608;2024-01-30T04:08:35;100505.78;;;-2.63
11926;BMP180;6022;48.768;18.608;2024-01-30T04:11:06;100505.78;;;-2.63
11926;BMP180;6022;48.768;18.608;2024-01-30T04:13:34;100507.38;;;-2.65
11926;BMP180;6022;48.768;18.608;2024-01-30T04:16:01;100517.38;;;-2.62
11926;BMP180;6022;48.768;18.608;2024-01-30T04:18:29;100519.06;;;-2.61
11926;BMP180;6022;48.768;18.608;2024-01-30T04:20:57;100515.78;;;-2.60
11926;BMP180;6022;48.768;18.608;2024-01-30T04:23:24;100515.84;;;-2.57
11926;BMP180;6022;48.768;18.608;2024-01-30T04:25:51;100521.63;;;-2.58
11926;BMP180;6022;48.768;18.608;2024-01-30T04:28:18;100517.34;;;-2.63
11926;BMP180;6022;48.768;18.608;2024-01-30T04:30:46;100508.16;;;-2.67
11926;BMP180;6022;48.768;18.608;2024-01-30T04:33:13;100514.72;;;-2.71
11926;BMP180;6022;48.768;18.608;2024-01-30T04:35:40;100514.59;;;-2.77
11926;BMP180;6022;48.768;18.608;2024-01-30T04:38:10;100528.75;;;-2.73
11926;BMP180;6022;48.768;18.608;2024-01-30T04:40:37;100526.25;;;-2.73
11926;BMP180;6022;48.768;18.608;2024-01-30T04:43:05;100519.53;;;-2.77
11926;BMP180;6022;48.768;18.608;2024-01-30T04:45:32;100526.19;;;-2.76
11926;BMP180;6022;48.768;18.608;2024-01-30T04:47:59;100526.91;;;-2.80
11926;BMP180;6022;48.768;18.608;2024-01-30T04:50:26;100530.19;;;-2.81
11926;BMP180;6022;48.768;18.608;2024-01-30T04:52:54;100530.19;;;-2.81
11926;BMP180;6022;48.768;18.608;2024-01-30T04:55:21;100530.19;;;-2.81
11926;BMP180;6022;48.768;18.608;2024-01-30T04:57:49;100524.41;;;-2.81
11926;BMP180;6022;48.768;18.608;2024-01-30T05:00:22;100525.22;;;-2.81
11926;BMP180;6022;48.768;18.608;2024-01-30T05:02:50;100532.69;;;-2.81
11926;BMP180;6022;48.768;18.608;2024-01-30T05:05:17;100530.19;;;-2.81
11926;BMP180;6022;48.768;18.608;2024-01-30T05:07:44;100531.88;;;-2.80
11926;BMP180;6022;48.768;18.608;2024-01-30T05:10:11;100530.16;;;-2.84
11926;BMP180;6022;48.768;18.608;2024-01-30T05:12:41;100530.06;;;-2.88
11926;BMP180;6022;48.768;18.608;2024-01-30T05:15:09;100530.75;;;-2.92
11926;BMP180;6022;48.768;18.608;2024-01-30T05:17:36;100526.53;;;-2.98
11926;BMP180;6022;48.768;18.608;2024-01-30T05:20:04;100524.88;;;-2.97
11926;BMP180;6022;48.768;18.608;2024-01-30T05:22:35;100526.44;;;-3.01
11926;BMP180;6022;48.768;18.608;2024-01-30T05:25:02;100532.28;;;-2.99
11926;BMP180;6022;48.768;18.608;2024-01-30T05:27:32;100530.59;;;-3.00
11926;BMP180;6022;48.768;18.608;2024-01-30T05:30:02;100528.97;;;-2.99
11926;BMP180;6022;48.768;18.608;2024-01-30T05:32:29;100534.69;;;-3.02
11926;BMP180;6022;48.768;18.608;2024-01-30T05:34:57;100538.06;;;-2.98
11926;BMP180;6022;48.768;18.608;2024-01-30T05:37:24;100536.38;;;-3.01
11926;BMP180;6022;48.768;18.608;2024-01-30T05:39:52;100542.94;;;-3.02
11926;BMP180;6022;48.768;18.608;2024-01-30T05:42:21;100541.19;;;-3.06
11926;BMP180;6022;48.768;18.608;2024-01-30T05:44:51;100545.28;;;-3.07
11926;BMP180;6022;48.768;18.608;2024-01-30T05:47:20;100547.78;;;-3.08
11926;BMP180;6022;48.768;18.608;2024-01-30T05:49:50;100542.81;;;-3.08
11926;BMP180;6022;48.768;18.608;2024-01-30T05:52:17;100546.13;;;-3.08
11926;BMP180;6022;48.768;18.608;2024-01-30T05:54:48;100541.94;;;-3.09
11926;BMP180;6022;48.768;18.608;2024-01-30T05:57:15;100539.38;;;-3.13
11926;BMP180;6022;48.768;18.608;2024-01-30T05:59:44;100538.50;;;-3.15
11926;BMP180;6022;48.768;18.608;2024-01-30T06:02:11;100546.72;;;-3.18
11926;BMP180;6022;48.768;18.608;2024-01-30T06:04:38;100545.09;;;-3.16
11926;BMP180;6022;48.768;18.608;2024-01-30T06:07:08;100546.72;;;-3.18
11926;BMP180;6022;48.768;18.608;2024-01-30T06:09:36;100541.63;;;-3.22
11926;BMP180;6022;48.768;18.608;2024-01-30T06:12:05;100540.69;;;-3.27
11926;BMP180;6022;48.768;18.608;2024-01-30T06:14:32;100540.00;;;-3.22
11926;BMP180;6022;48.768;18.608;2024-01-30T06:17:00;100545.84;;;-3.18
11926;BMP180;6022;48.768;18.608;2024-01-30T06:19:27;100545.03;;;-3.19
11926;BMP180;6022;48.768;18.608;2024-01-30T06:21:54;100535.19;;;-3.16
11926;BMP180;6022;48.768;18.608;2024-01-30T06:24:24;100534.31;;;-3.16
11926;BMP180;6022;48.768;18.608;2024-01-30T06:26:51;100534.25;;;-3.19
11926;BMP180;6022;48.768;18.608;2024-01-30T06:29:18;100537.63;;;-3.17
11926;BMP180;6022;48.768;18.608;2024-01-30T06:31:46;100536.78;;;-3.16
11926;BMP180;6022;48.768;18.608;2024-01-30T06:34:16;100534.31;;;-3.16
11926;BMP180;6022;48.768;18.608;2024-01-30T06:36:44;100538.59;;;-3.11
11926;BMP180;6022;48.768;18.608;2024-01-30T06:39:11;100531.25;;;-3.06
11926;BMP180;6022;48.768;18.608;2024-01-30T06:41:38;100533.00;;;-3.02
11926;BMP180;6022;48.768;18.608;2024-01-30T06:44:09;100525.56;;;-3.02
11926;BMP180;6022;48.768;18.608;2024-01-30T06:46:39;100523.09;;;-3.02
11926;BMP180;6022;48.768;18.608;2024-01-30T06:49:06;100525.53;;;-3.04
11926;BMP180;6022;48.768;18.608;2024-01-30T06:51:34;100528.91;;;-3.01
11926;BMP180;6022;48.768;18.608;2024-01-30T06:54:01;100536.41;;;-2.99
11926;BMP180;6022;48.768;18.608;2024-01-30T06:56:28;100535.63;;;-2.97
11926;BMP180;6022;48.768;18.608;2024-01-30T06:58:55;100534.09;;;-2.92
11926;BMP180;6022;48.768;18.608;2024-01-30T07:01:31;100536.72;;;-2.86
11926;BMP180;6022;48.768;18.608;2024-01-30T07:04:02;100533.59;;;-2.79
11926;BMP180;6022;48.768;18.608;2024-01-30T07:06:29;100537.84;;;-2.72
11926;BMP180;6022;48.768;18.608;2024-01-30T07:08:57;100530.53;;;-2.66
11926;BMP180;6022;48.768;18.608;2024-01-30T07:11:29;100535.72;;;-2.57
11926;BMP180;6022;48.768;18.608;2024-01-30T07:13:57;100537.56;;;-2.47
11926;BMP180;6022;48.768;18.608;2024-01-30T07:16:24;100541.09;;;-2.38
11926;BMP180;6022;48.768;18.608;2024-01-30T07:18:51;100527.09;;;-2.34
11926;BMP180;6022;48.768;18.608;2024-01-30T07:21:19;100538.91;;;-2.23
11926;BMP180;6022;48.768;18.608;2024-01-30T07:23:49;100536.53;;;-2.19
11926;BMP180;6022;48.768;18.608;2024-01-30T07:26:16;100545.78;;;-2.13
11926;BMP180;6022;48.768;18.608;2024-01-30T07:28:43;100535.09;;;-2.08
11926;BMP180;6022;48.768;18.608;2024-01-30T07:31:12;100538.59;;;-2.00
11926;BMP180;6022;48.768;18.608;2024-01-30T07:33:39;100543.78;;;-1.88
11926;BMP180;6022;48.768;18.608;2024-01-30T07:36:07;100522.38;;;-1.80
11926;BMP180;6022;48.768;18.608;2024-01-30T07:38:34;100532.50;;;-1.71
11926;BMP180;6022;48.768;18.608;2024-01-30T07:41:01;100534.38;;;-1.58
11926;BMP180;6022;48.768;18.608;2024-01-30T07:43:29;100539.63;;;-1.44
11926;BMP180;6022;48.768;18.608;2024-01-30T07:45:57;100529.13;;;-1.26
11926;BMP180;6022;48.768;18.608;2024-01-30T07:48:24;100532.00;;;-1.04
11926;BMP180;6022;48.768;18.608;2024-01-30T07:50:51;100533.22;;;-0.77
11926;BMP180;6022;48.768;18.608;2024-01-30T07:53:18;100537.75;;;-0.51
11926;BMP180;6022;48.768;18.608;2024-01-30T07:55:47;100532.41;;;-0.17
11926;BMP180;6022;48.768;18.608;2024-01-30T07:58:17;100527.75;;;0.11
11926;BMP180;6022;48.768;18.608;2024-01-30T08:00:44;100536.53;;;0.53
11926;BMP180;6022;48.768;18.608;2024-01-30T08:03:12;100539.34;;;0.90
11926;BMP180;6022;48.768;18.608;2024-01-30T08:05:39;100539.63;;;1.24
11926;BMP180;6022;48.768;18.608;2024-01-30T08:08:07;100538.13;;;1.57
11926;BMP180;6022;48.768;18.608;2024-01-30T08:10:34;100543.34;;;1.91
11926;BMP180;6022;48.768;18.608;2024-01-30T08:13:02;100537.63;;;2.33
11926;BMP180;6022;48.768;18.608;2024-01-30T08:15:31;100541.88;;;2.73
11926;BMP180;6022;48.768;18.608;2024-01-30T08:18:02;100537.72;;;3.00
11926;BMP180;6022;48.768;18.608;2024-01-30T08:20:31;100541.88;;;3.23
11926;BMP180;6022;48.768;18.608;2024-01-30T08:22:58;100548.50;;;3.57
11926;BMP180;6022;48.768;18.608;2024-01-30T08:25:27;100555.97;;;3.88
11926;BMP180;6022;48.768;18.608;2024-01-30T08:27:54;100541.59;;;4.21
11926;BMP180;6022;48.768;18.608;2024-01-30T08:30:21;100546.44;;;4.53
11926;BMP180;6022;48.768;18.608;2024-01-30T08:32:49;100546.31;;;4.74
11926;BMP180;6022;48.768;18.608;2024-01-30T08:35:16;100542.88;;;4.87
11926;BMP180;6022;48.768;18.608;2024-01-30T08:37:44;100542.72;;;5.05
11926;BMP180;6022;48.768;18.608;2024-01-30T08:40:11;100539.19;;;5.24
11926;BMP180;6022;48.768;18.608;2024-01-30T08:42:38;100540.94;;;5.17
11926;BMP180;6022;48.768;18.608;2024-01-30T08:45:06;100537.66;;;5.06
11926;BMP180;6022;48.768;18.608;2024-01-30T08:47:34;100542.06;;;4.84
11926;BMP180;6022;48.768;18.608;2024-01-30T08:50:01;100539.47;;;4.92
11926;BMP180;6022;48.768;18.608;2024-01-30T08:52:31;100542.66;;;5.11
11926;BMP180;6022;48.768;18.608;2024-01-30T08:55:00;100530.66;;;5.39
11926;BMP180;6022;48.768;18.608;2024-01-30T08:57:27;100533.19;;;5.38
11926;BMP180;6022;48.768;18.608;2024-01-30T08:59:56;100527.25;;;5.45
11926;BMP180;6022;48.768;18.608;2024-01-30T09:02:24;100537.03;;;5.74
11926;BMP180;6022;48.768;18.608;2024-01-30T09:04:51;100526.84;;;5.85
11926;BMP180;6022;48.768;18.608;2024-01-30T09:07:18;100533.44;;;5.95
11926;BMP180;6022;48.768;18.608;2024-01-30T09:09:46;100530.00;;;6.00
11926;BMP180;6022;48.768;18.608;2024-01-30T09:12:16;100527.22;;;6.21
11926;BMP180;6022;48.768;18.608;2024-01-30T09:14:46;100529.41;;;6.46
11926;BMP180;6022;48.768;18.608;2024-01-30T09:17:23;100529.94;;;6.67
11926;BMP180;6022;48.768;18.608;2024-01-30T09:19:50;100514.59;;;6.79
11926;BMP180;6022;48.768;18.608;2024-01-30T09:22:17;100512.09;;;6.79
11926;BMP180;6022;48.768;18.608;2024-01-30T09:24:45;100523.75;;;6.87
11926;BMP180;6022;48.768;18.608;2024-01-30T09:27:12;100518.38;;;7.05
11926;BMP180;6022;48.768;18.608;2024-01-30T09:29:39;100517.56;;;7.05
11926;BMP180;6022;48.768;18.608;2024-01-30T09:32:07;100524.44;;;6.97
11926;BMP180;6022;48.768;18.608;2024-01-30T09:34:37;100514.69;;;7.25
11926;BMP180;6022;48.768;18.608;2024-01-30T09:37:04;100511.72;;;7.01
11926;BMP180;6022;48.768;18.608;2024-01-30T09:39:31;100518.00;;;6.78
11926;BMP180;6022;48.768;18.608;2024-01-30T09:42:28;100514.69;;;7.25
11926;BMP180;6022;48.768;18.608;2024-01-30T09:44:58;100513.50;;;7.44
11926;BMP180;6022;48.768;18.608;2024-01-30T09:47:26;100508.53;;;7.83
11926;BMP180;6022;48.768;18.608;2024-01-30T09:49:55;100505.53;;;8.07
11926;BMP180;6022;48.768;18.608;2024-01-30T09:52:23;100501.69;;;8.28
11926;BMP180;6022;48.768;18.608;2024-01-30T09:54:51;100504.81;;;8.39
11926;BMP180;6022;48.768;18.608;2024-01-30T09:57:20;100503.78;;;8.48
11926;BMP180;6022;48.768;18.608;2024-01-30T09:59:48;100505.47;;;8.49
11926;BMP180;6022;48.768;18.608;2024-01-30T10:02:16;100497.84;;;8.50
11926;BMP180;6022;48.768;18.608;2024-01-30T10:04:44;100498.50;;;8.58
11926;BMP180;6022;48.768;18.608;2024-01-30T10:07:12;100495.03;;;8.62
11926;BMP180;6022;48.768;18.608;2024-01-30T10:09:40;100503.94;;;8.78
11926;BMP180;6022;48.768;18.608;2024-01-30T10:12:09;100498.63;;;8.87
11926;BMP180;6022;48.768;18.608;2024-01-30T10:14:40;100495.91;;;8.96
11926;BMP180;6022;48.768;18.608;2024-01-30T10:17:12;100485.47;;;9.07
11926;BMP180;6022;48.768;18.608;2024-01-30T10:19:53;100478.75;;;9.06
11926;BMP180;6022;48.768;18.608;2024-01-30T10:22:20;100478.94;;;8.99
11926;BMP180;6022;48.768;18.608;2024-01-30T10:24:48;100476.81;;;9.16
11926;BMP180;6022;48.768;18.608;2024-01-30T10:27:16;100478.44;;;9.18
11926;BMP180;6022;48.768;18.608;2024-01-30T10:29:43;100475.03;;;9.19
11926;BMP180;6022;48.768;18.608;2024-01-30T10:32:10;100469.03;;;9.23
11926;BMP180;6022;48.768;18.608;2024-01-30T10:34:37;100456.19;;;9.29
11926;BMP180;6022;48.768;18.608;2024-01-30T10:37:10;100463.06;;;9.24
11926;BMP180;6022;48.768;18.608;2024-01-30T10:39:45;100455.28;;;9.32
11926;BMP180;6022;48.768;18.608;2024-01-30T10:42:15;100450.63;;;9.47
11926;BMP180;6022;48.768;18.608;2024-01-30T10:45:07;100452.09;;;9.84
11926;BMP180;6022;48.768;18.608;2024-01-30T10:47:50;100444.06;;;10.00
11926;BMP180;6022;48.768;18.608;2024-01-30T10:50:18;100435.28;;;9.81
11926;BMP180;6022;48.768;18.608;2024-01-30T10:52:47;100440.78;;;9.97
11926;BMP180;6022;48.768;18.608;2024-01-30T10:55:16;100435.84;;;9.92
11926;BMP180;6022;48.768;18.608;2024-01-30T10:57:44;100431.16;;;10.08
11926;BMP180;6022;48.768;18.608;2024-01-30T11:00:16;100431.13;;;10.09
11926;BMP180;6022;48.768;18.608;2024-01-30T11:02:52;100430.97;;;10.14
11926;BMP180;6022;48.768;18.608;2024-01-30T11:05:27;100411.78;;;10.05
11926;BMP180;6022;48.768;18.608;2024-01-30T11:08:10;100416.41;;;10.20
11926;BMP180;6022;48.768;18.608;2024-01-30T11:10:47;100420.03;;;10.12
11926;BMP180;6022;48.768;18.608;2024-01-30T11:13:15;100416.88;;;10.31
11926;BMP180;6022;48.768;18.608;2024-01-30T11:15:43;100412.31;;;10.42
11926;BMP180;6022;48.768;18.608;2024-01-30T11:18:10;100405.88;;;10.57
11926;BMP180;6022;48.768;18.608;2024-01-30T11:20:38;100402.44;;;10.58
11926;BMP180;6022;48.768;18.608;2024-01-30T11:23:12;100397.41;;;10.57
11926;BMP180;6022;48.768;18.608;2024-01-30T11:25:39;100400.13;;;10.53
11926;BMP180;6022;48.768;18.608;2024-01-30T11:28:14;100400.97;;;10.52
11926;BMP180;6022;48.768;18.608;2024-01-30T11:30:42;100394.25;;;10.51
11926;BMP180;6022;48.768;18.608;2024-01-30T11:33:13;100393.47;;;10.49
11926;BMP180;6022;48.768;18.608;2024-01-30T11:35:43;100388.22;;;10.55
11926;BMP180;6022;48.768;18.608;2024-01-30T11:38:15;100394.22;;;10.52
11926;BMP180;6022;48.768;18.608;2024-01-30T11:40:45;100383.91;;;10.56
11926;BMP180;6022;48.768;18.608;2024-01-30T11:43:13;100384.19;;;10.73
11926;BMP180;6022;48.768;18.608;2024-01-30T11:45:40;100375.59;;;10.77
11926;BMP180;6022;48.768;18.608;2024-01-30T11:48:08;100374.97;;;10.71
11926;BMP180;6022;48.768;18.608;2024-01-30T11:50:39;100383.78;;;10.85
11926;BMP180;6022;48.768;18.608;2024-01-30T11:53:10;100379.00;;;11.00
11926;BMP180;6022;48.768;18.608;2024-01-30T11:55:37;100373.78;;;11.05
11926;BMP180;6022;48.768;18.608;2024-01-30T11:58:05;100371.25;;;11.05
11926;BMP180;6022;48.768;18.608;2024-01-30T12:00:33;100359.75;;;10.95
11926;BMP180;6022;48.768;18.608;2024-01-30T12:03:02;100362.13;;;10.99
11926;BMP180;6022;48.768;18.608;2024-01-30T12:05:30;100355.69;;;11.14
11926;BMP180;6022;48.768;18.608;2024-01-30T12:07:58;100350.47;;;11.17
11926;BMP180;6022;48.768;18.608;2024-01-30T12:10:29;100350.06;;;11.29
11926;BMP180;6022;48.768;18.608;2024-01-30T12:12:57;100353.53;;;11.26
11926;BMP180;6022;48.768;18.608;2024-01-30T12:15:25;100347.28;;;11.34
11926;BMP180;6022;48.768;18.608;2024-01-30T12:18:05;100348.88;;;11.37
11926;BMP180;6022;48.768;18.608;2024-01-30T12:20:33;100346.28;;;11.38
11926;BMP180;6022;48.768;18.608;2024-01-30T12:23:01;100342.72;;;11.21
11926;BMP180;6022;48.768;18.608;2024-01-30T12:25:28;100336.56;;;11.27
11926;BMP180;6022;48.768;18.608;2024-01-30T12:27:55;100337.34;;;11.29
11926;BMP180;6022;48.768;18.608;2024-01-30T12:30:22;100327.34;;;11.24
11926;BMP180;6022;48.768;18.608;2024-01-30T12:32:50;100328.66;;;11.34
11926;BMP180;6022;48.768;18.608;2024-01-30T12:35:20;100333.81;;;11.32
11926;BMP180;6022;48.768;18.608;2024-01-30T12:37:49;100338.16;;;11.53
11926;BMP180;6022;48.768;18.608;2024-01-30T12:40:17;100324.44;;;11.34
11926;BMP180;6022;48.768;18.608;2024-01-30T12:42:47;100326.06;;;11.35
11926;BMP180;6022;48.768;18.608;2024-01-30T12:45:17;100323.53;;;11.35
11926;BMP180;6022;48.768;18.608;2024-01-30T12:47:50;100320.50;;;11.49
11926;BMP180;6022;48.768;18.608;2024-01-30T12:50:17;100324.97;;;11.42
11926;BMP180;6022;48.768;18.608;2024-01-30T12:52:46;100320.06;;;11.38
11926;BMP180;6022;48.768;18.608;2024-01-30T12:55:16;100320.75;;;11.41
11926;BMP180;6022;48.768;18.608;2024-01-30T12:57:44;100314.44;;;11.06
11926;BMP180;6022;48.768;18.608;2024-01-30T13:00:13;100305.69;;;10.92
11926;BMP180;6022;48.768;18.608;2024-01-30T13:02:40;100313.72;;;10.80
11926;BMP180;6022;48.768;18.608;2024-01-30T13:05:10;100301.69;;;10.60
11926;BMP180;6022;48.768;18.608;2024-01-30T13:07:37;100302.13;;;10.49
11926;BMP180;6022;48.768;18.608;2024-01-30T13:10:05;100294.59;;;10.46
11926;BMP180;6022;48.768;18.608;2024-01-30T13:12:33;100300.25;;;10.29
11926;BMP180;6022;48.768;18.608;2024-01-30T13:15:01;100296.22;;;10.24
11926;BMP180;6022;48.768;18.608;2024-01-30T13:17:28;100296.81;;;10.30
11926;BMP180;6022;48.768;18.608;2024-01-30T13:19:59;100296.09;;;10.27
11926;BMP180;6022;48.768;18.608;2024-01-30T13:22:37;100304.91;;;9.63
11926;BMP180;6022;48.768;18.608;2024-01-30T13:25:06;100303.03;;;9.96
11926;BMP180;6022;48.768;18.608;2024-01-30T13:27:36;100306.06;;;10.07
11926;BMP180;6022;48.768;18.608;2024-01-30T13:30:07;100294.66;;;10.20
11926;BMP180;6022;48.768;18.608;2024-01-30T13:32:35;100296.59;;;9.58
11926;BMP180;6022;48.768;18.608;2024-01-30T13:35:03;100293.84;;;9.65
11926;BMP180;6022;48.768;18.608;2024-01-30T13:37:30;100289.63;;;9.66
11926;BMP180;6022;48.768;18.608;2024-01-30T13:39:58;100297.56;;;9.54
11926;BMP180;6022;48.768;18.608;2024-01-30T13:42:27;100296.88;;;9.49
11926;BMP180;6022;48.768;18.608;2024-01-30T13:44:54;100294.09;;;9.56
11926;BMP180;6022;48.768;18.608;2024-01-30T13:47:24;100293.66;;;9.44
11926;BMP180;6022;48.768;18.608;2024-01-30T13:49:52;100297.03;;;9.43
11926;BMP180;6022;48.768;18.608;2024-01-30T13:52:20;100298.53;;;9.50
11926;BMP180;6022;48.768;18.608;2024-01-30T13:54:51;100291.63;;;9.55
11926;BMP180;6022;48.768;18.608;2024-01-30T13:57:19;100290.34;;;9.42
11926;BMP180;6022;48.768;18.608;2024-01-30T13:59:48;100289.22;;;9.23
11926;BMP180;6022;48.768;18.608;2024-01-30T14:02:16;100290.50;;;9.07
11926;BMP180;6022;48.768;18.608;2024-01-30T14:04:43;100290.56;;;9.06
11926;BMP180;6022;48.768;18.608;2024-01-30T14:07:11;100282.47;;;8.94